sensor_id;sensor_type;location;lat;lon;timestamp;pressure;altitude;pressure_sealevel;temperature;humidity
4972;BME280;2501;51.214;6.768;2022-08-19T00:02:03;100761.69;;;22.01;nan
4972;BME280;2501;51.214;6.768;2022-08-19T00:04:34;100762.78;;;22.04;nan
4972;BME280;2501;51.214;6.768;2022-08-19T00:07:03;100758.44;;;22.12;nan
4972;BME280;2501;51.214;6.768;2022-08-19T00:09:32;100762.53;;;22.11;nan
4972;BME280;2501;51.214;6.768;2022-08-19T00:12:01;100770.34;;;22.07;nan
4972;BME280;2501;51.214;6.768;2022-08-19T00:14:32;100763.28;;;22.02;nan
4972;BME280;2501;51.214;6.768;2022-08-19T00:17:02;100764.19;;;21.99;nan
4972;BME280;2501;51.214;6.768;2022-08-19T00:19:32;100765.91;;;21.97;nan
4972;BME280;2501;51.214;6.768;2022-08-19T00:22:01;100760.41;;;21.93;nan
4972;BME280;2501;51.214;6.768;2022-08-19T00:24:31;100758.63;;;21.87;nan
4972;BME280;2501;51.214;6.768;2022-08-19T00:27:00;100755.59;;;21.81;nan
4972;BME280;2501;51.214;6.768;2022-08-19T00:29:32;100747.00;;;21.76;nan
4972;BME280;2501;51.214;6.768;2022-08-19T00:32:00;100753.38;;;21.76;nan
4972;BME280;2501;51.214;6.768;2022-08-19T00:34:29;100753.53;;;21.73;nan
4972;BME280;2501;51.214;6.768;2022-08-19T00:36:58;100748.81;;;21.69;nan
4972;BME280;2501;51.214;6.768;2022-08-19T00:39:27;100748.81;;;21.69;nan
4972;BME280;2501;51.214;6.768;2022-08-19T00:41:55;100759.31;;;21.69;nan
4972;BME280;2501;51.214;6.768;2022-08-19T00:44:26;100749.88;;;21.63;nan
4972;BME280;2501;51.214;6.768;2022-08-19T00:46:58;100748.75;;;21.60;nan
4972;BME280;2501;51.214;6.768;2022-08-19T00:49:29;100755.84;;;21.65;nan
4972;BME280;2501;51.214;6.768;2022-08-19T00:52:04;100748.59;;;21.55;nan
4972;BME280;2501;51.214;6.768;2022-08-19T00:54:34;100757.63;;;21.50;nan
4972;BME280;2501;51.214;6.768;2022-08-19T00:57:06;100742.88;;;21.46;nan
4972;BME280;2501;51.214;6.768;2022-08-19T00:59:39;100739.88;;;21.40;nan
4972;BME280;2501;51.214;6.768;2022-08-19T01:02:11;100733.91;;;21.38;nan
4972;BME280;2501;51.214;6.768;2022-08-19T01:04:40;100742.06;;;21.36;nan
4972;BME280;2501;51.214;6.768;2022-08-19T01:07:08;100754.56;;;21.35;nan
4972;BME280;2501;51.214;6.768;2022-08-19T01:09:37;100756.06;;;21.27;nan
4972;BME280;2501;51.214;6.768;2022-08-19T01:12:06;100756.06;;;21.27;nan
4972;BME280;2501;51.214;6.768;2022-08-19T01:14:36;100751.66;;;21.26;nan
4972;BME280;2501;51.214;6.768;2022-08-19T01:17:05;100746.69;;;21.30;nan
4972;BME280;2501;51.214;6.768;2022-08-19T01:19:39;100746.81;;;21.27;nan
4972;BME280;2501;51.214;6.768;2022-08-19T01:22:18;100752.91;;;21.25;nan
4972;BME280;2501;51.214;6.768;2022-08-19T01:24:51;100755.66;;;21.16;nan
4972;BME280;2501;51.214;6.768;2022-08-19T01:27:19;100751.03;;;21.09;nan
4972;BME280;2501;51.214;6.768;2022-08-19T01:29:48;100744.28;;;21.07;nan
4972;BME280;2501;51.214;6.768;2022-08-19T01:32:17;100752.78;;;20.94;nan
4972;BME280;2501;51.214;6.768;2022-08-19T01:34:45;100745.25;;;20.91;nan
4972;BME280;2501;51.214;6.768;2022-08-19T01:37:14;100742.84;;;20.81;nan
4972;BME280;2501;51.214;6.768;2022-08-19T01:39:44;100741.25;;;20.80;nan
4972;BME280;2501;51.214;6.768;2022-08-19T01:42:15;100746.56;;;20.77;nan
4972;BME280;2501;51.214;6.768;2022-08-19T01:44:45;100739.88;;;20.84;nan
4972;BME280;2501;51.214;6.768;2022-08-19T01:47:14;100743.69;;;20.90;nan
4972;BME280;2501;51.214;6.768;2022-08-19T01:49:42;100744.03;;;20.92;nan
4972;BME280;2501;51.214;6.768;2022-08-19T01:52:11;100739.97;;;20.93;nan
4972;BME280;2501;51.214;6.768;2022-08-19T01:54:39;100746.19;;;20.88;nan
4972;BME280;2501;51.214;6.768;2022-08-19T01:57:10;100745.44;;;20.75;nan
4972;BME280;2501;51.214;6.768;2022-08-19T01:59:43;100739.59;;;20.69;nan
4972;BME280;2501;51.214;6.768;2022-08-19T02:02:13;100739.22;;;20.80;nan
4972;BME280;2501;51.214;6.768;2022-08-19T02:04:41;100740.69;;;20.85;nan
4972;BME280;2501;51.214;6.768;2022-08-19T02:07:11;100737.66;;;20.79;nan
4972;BME280;2501;51.214;6.768;2022-08-19T02:09:39;100733.50;;;20.71;nan
4972;BME280;2501;51.214;6.768;2022-08-19T02:12:08;100729.47;;;20.72;nan
4972;BME280;2501;51.214;6.768;2022-08-19T02:14:36;100731.03;;;20.73;nan
4972;BME280;2501;51.214;6.768;2022-08-19T02:17:08;100732.72;;;20.70;nan
4972;BME280;2501;51.214;6.768;2022-08-19T02:19:36;100732.53;;;20.65;nan
4972;BME280;2501;51.214;6.768;2022-08-19T02:22:05;100747.56;;;20.71;nan
4972;BME280;2501;51.214;6.768;2022-08-19T02:24:34;100741.50;;;20.72;nan
4972;BME280;2501;51.214;6.768;2022-08-19T02:27:02;100745.38;;;20.66;nan
4972;BME280;2501;51.214;6.768;2022-08-19T02:29:31;100750.63;;;20.64;nan
4972;BME280;2501;51.214;6.768;2022-08-19T02:32:00;100741.31;;;20.54;nan
4972;BME280;2501;51.214;6.768;2022-08-19T02:34:32;100750.00;;;20.47;nan
4972;BME280;2501;51.214;6.768;2022-08-19T02:37:01;100745.63;;;20.46;nan
4972;BME280;2501;51.214;6.768;2022-08-19T02:39:29;100745.28;;;20.44;nan
4972;BME280;2501;51.214;6.768;2022-08-19T02:41:56;100753.97;;;20.37;nan
4972;BME280;2501;51.214;6.768;2022-08-19T02:44:25;100752.94;;;20.31;nan
4972;BME280;2501;51.214;6.768;2022-08-19T02:46:53;100760.16;;;20.32;nan
4972;BME280;2501;51.214;6.768;2022-08-19T02:49:22;100765.53;;;20.26;nan
4972;BME280;2501;51.214;6.768;2022-08-19T02:51:53;100765.19;;;20.24;nan
4972;BME280;2501;51.214;6.768;2022-08-19T02:54:22;100762.16;;;20.19;nan
4972;BME280;2501;51.214;6.768;2022-08-19T02:56:50;100768.66;;;20.16;nan
4972;BME280;2501;51.214;6.768;2022-08-19T02:59:19;100769.56;;;20.13;nan
4972;BME280;2501;51.214;6.768;2022-08-19T03:01:47;100776.91;;;20.10;nan
4972;BME280;2501;51.214;6.768;2022-08-19T03:04:16;100786.56;;;20.09;nan
4972;BME280;2501;51.214;6.768;2022-08-19T03:06:46;100772.06;;;20.11;nan
4972;BME280;2501;51.214;6.768;2022-08-19T03:09:20;100774.53;;;20.09;nan
4972;BME280;2501;51.214;6.768;2022-08-19T03:11:48;100774.53;;;20.09;nan
4972;BME280;2501;51.214;6.768;2022-08-19T03:14:17;100768.59;;;20.07;nan
4972;BME280;2501;51.214;6.768;2022-08-19T03:16:49;100765.88;;;20.03;nan
4972;BME280;2501;51.214;6.768;2022-08-19T03:19:19;100762.72;;;20.01;nan
4972;BME280;2501;51.214;6.768;2022-08-19T03:21:49;100763.06;;;20.03;nan
4972;BME280;2501;51.214;6.768;2022-08-19T03:24:20;100770.13;;;20.08;nan
4972;BME280;2501;51.214;6.768;2022-08-19T03:26:51;100775.06;;;20.04;nan
4972;BME280;2501;51.214;6.768;2022-08-19T03:29:23;100773.16;;;20.01;nan
4972;BME280;2501;51.214;6.768;2022-08-19T03:31:52;100775.31;;;20.09;nan
4972;BME280;2501;51.214;6.768;2022-08-19T03:34:25;100779.34;;;20.08;nan
4972;BME280;2501;51.214;6.768;2022-08-19T03:36:56;100782.06;;;20.12;nan
4972;BME280;2501;51.214;6.768;2022-08-19T03:39:28;100773.84;;;20.17;nan
4972;BME280;2501;51.214;6.768;2022-08-19T03:41:56;100764.50;;;20.20;nan
4972;BME280;2501;51.214;6.768;2022-08-19T03:44:29;100773.19;;;20.13;nan
4972;BME280;2501;51.214;6.768;2022-08-19T03:46:59;100773.72;;;20.08;nan
4972;BME280;2501;51.214;6.768;2022-08-19T03:49:29;100773.28;;;19.97;nan
4972;BME280;2501;51.214;6.768;2022-08-19T03:51:59;100778.88;;;19.84;nan
4972;BME280;2501;51.214;6.768;2022-08-19T03:54:33;100772.47;;;19.84;nan
4972;BME280;2501;51.214;6.768;2022-08-19T03:57:02;100775.28;;;19.84;nan
4972;BME280;2501;51.214;6.768;2022-08-19T03:59:33;100788.22;;;19.81;nan
4972;BME280;2501;51.214;6.768;2022-08-19T04:02:06;100781.91;;;19.77;nan
4972;BME280;2501;51.214;6.768;2022-08-19T04:04:36;100781.91;;;19.77;nan
4972;BME280;2501;51.214;6.768;2022-08-19T04:07:05;100786.19;;;19.69;nan
4972;BME280;2501;51.214;6.768;2022-08-19T04:09:36;100777.84;;;19.66;nan
4972;BME280;2501;51.214;6.768;2022-08-19T04:12:05;100776.94;;;19.69;nan
4972;BME280;2501;51.214;6.768;2022-08-19T04:14:34;100787.75;;;19.70;nan
4972;BME280;2501;51.214;6.768;2022-08-19T04:17:03;100792.34;;;19.64;nan
4972;BME280;2501;51.214;6.768;2022-08-19T04:19:34;100797.28;;;19.60;nan
4972;BME280;2501;51.214;6.768;2022-08-19T04:22:04;100789.41;;;19.55;nan
4972;BME280;2501;51.214;6.768;2022-08-19T04:24:36;100778.28;;;19.52;nan
4972;BME280;2501;51.214;6.768;2022-08-19T04:27:05;100778.72;;;19.50;nan
4972;BME280;2501;51.214;6.768;2022-08-19T04:29:34;100787.50;;;19.52;nan
4972;BME280;2501;51.214;6.768;2022-08-19T04:32:05;100785.44;;;19.53;nan
4972;BME280;2501;51.214;6.768;2022-08-19T04:34:34;100794.78;;;19.50;nan
4972;BME280;2501;51.214;6.768;2022-08-19T04:37:05;100788.38;;;19.49;nan
4972;BME280;2501;51.214;6.768;2022-08-19T04:39:39;100795.56;;;19.50;nan
4972;BME280;2501;51.214;6.768;2022-08-19T04:42:20;100790.94;;;19.44;nan
4972;BME280;2501;51.214;6.768;2022-08-19T04:45:02;100800.25;;;19.41;nan
4972;BME280;2501;51.214;6.768;2022-08-19T04:47:31;100791.03;;;19.40;nan
4972;BME280;2501;51.214;6.768;2022-08-19T04:49:59;100804.28;;;19.40;nan
4972;BME280;2501;51.214;6.768;2022-08-19T04:52:28;100806.28;;;19.39;nan
4972;BME280;2501;51.214;6.768;2022-08-19T04:54:59;100818.31;;;19.40;nan
4972;BME280;2501;51.214;6.768;2022-08-19T04:57:28;100825.66;;;19.50;nan
4972;BME280;2501;51.214;6.768;2022-08-19T04:59:56;100821.28;;;19.49;nan
4972;BME280;2501;51.214;6.768;2022-08-19T05:02:25;100830.75;;;19.55;nan
4972;BME280;2501;51.214;6.768;2022-08-19T05:04:58;100824.13;;;19.61;nan
4972;BME280;2501;51.214;6.768;2022-08-19T05:07:27;100828.38;;;19.53;nan
4972;BME280;2501;51.214;6.768;2022-08-19T05:10:00;100833.16;;;19.40;nan
4972;BME280;2501;51.214;6.768;2022-08-19T05:12:30;100836.06;;;19.36;nan
4972;BME280;2501;51.214;6.768;2022-08-19T05:14:59;100843.59;;;19.40;nan
4972;BME280;2501;51.214;6.768;2022-08-19T05:17:28;100836.00;;;19.53;nan
4972;BME280;2501;51.214;6.768;2022-08-19T05:19:57;100837.53;;;19.70;nan
4972;BME280;2501;51.214;6.768;2022-08-19T05:22:38;100840.72;;;19.84;nan
4972;BME280;2501;51.214;6.768;2022-08-19T05:25:12;100838.56;;;19.89;nan
4972;BME280;2501;51.214;6.768;2022-08-19T05:27:41;100845.94;;;19.99;nan
4972;BME280;2501;51.214;6.768;2022-08-19T05:30:11;100843.03;;;19.73;nan
4972;BME280;2501;51.214;6.768;2022-08-19T05:32:41;100847.44;;;19.74;nan
4972;BME280;2501;51.214;6.768;2022-08-19T05:35:10;100855.69;;;19.94;nan
4972;BME280;2501;51.214;6.768;2022-08-19T05:37:39;100856.38;;;19.98;nan
4972;BME280;2501;51.214;6.768;2022-08-19T05:40:11;100857.88;;;19.74;nan
4972;BME280;2501;51.214;6.768;2022-08-19T05:42:39;100855.31;;;19.79;nan
4972;BME280;2501;51.214;6.768;2022-08-19T05:45:09;100851.50;;;19.86;nan
4972;BME280;2501;51.214;6.768;2022-08-19T05:47:40;100858.47;;;19.81;nan
4972;BME280;2501;51.214;6.768;2022-08-19T05:50:10;100865.03;;;19.91;nan
4972;BME280;2501;51.214;6.768;2022-08-19T05:52:39;100861.22;;;19.69;nan
4972;BME280;2501;51.214;6.768;2022-08-19T05:55:18;100852.09;;;19.94;nan
4972;BME280;2501;51.214;6.768;2022-08-19T05:57:49;100851.31;;;20.06;nan
4972;BME280;2501;51.214;6.768;2022-08-19T06:00:17;100847.38;;;20.16;nan
4972;BME280;2501;51.214;6.768;2022-08-19T06:02:46;100848.84;;;20.20;nan
4972;BME280;2501;51.214;6.768;2022-08-19T06:05:14;100846.28;;;20.26;nan
4972;BME280;2501;51.214;6.768;2022-08-19T06:07:43;100842.00;;;20.21;nan
4972;BME280;2501;51.214;6.768;2022-08-19T06:10:14;100823.56;;;20.20;nan
4972;BME280;2501;51.214;6.768;2022-08-19T06:12:43;100840.75;;;20.10;nan
4972;BME280;2501;51.214;6.768;2022-08-19T06:15:13;100838.06;;;20.06;nan
4972;BME280;2501;51.214;6.768;2022-08-19T06:17:42;100839.16;;;19.96;nan
4972;BME280;2501;51.214;6.768;2022-08-19T06:20:14;100848.50;;;20.06;nan
4972;BME280;2501;51.214;6.768;2022-08-19T06:22:47;100854.94;;;20.19;nan
4972;BME280;2501;51.214;6.768;2022-08-19T06:25:19;100835.28;;;20.32;nan
4972;BME280;2501;51.214;6.768;2022-08-19T06:27:48;100835.75;;;20.30;nan
4972;BME280;2501;51.214;6.768;2022-08-19T06:30:16;100830.13;;;20.30;nan
4972;BME280;2501;51.214;6.768;2022-08-19T06:32:45;100828.44;;;20.45;nan
4972;BME280;2501;51.214;6.768;2022-08-19T06:35:13;100827.09;;;20.50;nan
4972;BME280;2501;51.214;6.768;2022-08-19T06:37:42;100828.63;;;20.51;nan
4972;BME280;2501;51.214;6.768;2022-08-19T06:40:12;100831.13;;;20.36;nan
4972;BME280;2501;51.214;6.768;2022-08-19T06:42:43;100835.38;;;20.28;nan
4972;BME280;2501;51.214;6.768;2022-08-19T06:45:11;100833.03;;;20.52;nan
4972;BME280;2501;51.214;6.768;2022-08-19T06:47:40;100838.88;;;20.57;nan
4972;BME280;2501;51.214;6.768;2022-08-19T06:50:13;100836.75;;;20.36;nan
4972;BME280;2501;51.214;6.768;2022-08-19T06:52:42;100837.31;;;20.31;nan
4972;BME280;2501;51.214;6.768;2022-08-19T06:55:11;100840.47;;;20.46;nan
4972;BME280;2501;51.214;6.768;2022-08-19T06:57:43;100845.88;;;20.53;nan
4972;BME280;2501;51.214;6.768;2022-08-19T07:00:13;100846.41;;;20.48;nan
4972;BME280;2501;51.214;6.768;2022-08-19T07:02:43;100841.56;;;20.73;nan
4972;BME280;2501;51.214;6.768;2022-08-19T07:05:11;100848.88;;;20.84;nan
4972;BME280;2501;51.214;6.768;2022-08-19T07:07:40;100847.38;;;20.92;nan
4972;BME280;2501;51.214;6.768;2022-08-19T07:10:09;100842.53;;;20.92;nan
4972;BME280;2501;51.214;6.768;2022-08-19T07:12:38;100841.88;;;20.88;nan
4972;BME280;2501;51.214;6.768;2022-08-19T07:15:10;100832.88;;;20.93;nan
4972;BME280;2501;51.214;6.768;2022-08-19T07:17:40;100841.66;;;20.83;nan
4972;BME280;2501;51.214;6.768;2022-08-19T07:20:10;100858.88;;;20.85;nan
4972;BME280;2501;51.214;6.768;2022-08-19T07:22:40;100850.31;;;21.01;nan
4972;BME280;2501;51.214;6.768;2022-08-19T07:25:09;100864.03;;;21.11;nan
4972;BME280;2501;51.214;6.768;2022-08-19T07:27:38;100856.69;;;21.14;nan
4972;BME280;2501;51.214;6.768;2022-08-19T07:30:12;100870.09;;;21.10;nan
4972;BME280;2501;51.214;6.768;2022-08-19T07:32:40;100876.81;;;21.25;nan
4972;BME280;2501;51.214;6.768;2022-08-19T07:35:09;100871.63;;;21.36;nan
4972;BME280;2501;51.214;6.768;2022-08-19T07:37:37;100866.84;;;21.46;nan
4972;BME280;2501;51.214;6.768;2022-08-19T07:40:10;100866.88;;;21.67;nan
4972;BME280;2501;51.214;6.768;2022-08-19T07:42:39;100876.25;;;21.86;nan
4972;BME280;2501;51.214;6.768;2022-08-19T07:45:11;100871.63;;;22.23;nan
4972;BME280;2501;51.214;6.768;2022-08-19T07:47:41;100881.34;;;22.22;nan
4972;BME280;2501;51.214;6.768;2022-08-19T07:50:10;100886.66;;;22.20;nan
4972;BME280;2501;51.214;6.768;2022-08-19T07:52:39;100884.84;;;22.35;nan
4972;BME280;2501;51.214;6.768;2022-08-19T07:55:10;100897.69;;;22.67;nan
4972;BME280;2501;51.214;6.768;2022-08-19T07:57:38;100889.66;;;22.96;nan
4972;BME280;2501;51.214;6.768;2022-08-19T08:00:08;100900.19;;;23.14;nan
4972;BME280;2501;51.214;6.768;2022-08-19T08:02:39;100906.44;;;22.60;nan
4972;BME280;2501;51.214;6.768;2022-08-19T08:05:08;100910.91;;;22.70;nan
4972;BME280;2501;51.214;6.768;2022-08-19T08:07:49;100911.94;;;22.63;nan
4972;BME280;2501;51.214;6.768;2022-08-19T08:10:30;100908.44;;;22.50;nan
4972;BME280;2501;51.214;6.768;2022-08-19T08:12:59;100903.47;;;22.63;nan
4972;BME280;2501;51.214;6.768;2022-08-19T08:15:31;100915.88;;;22.66;nan
4972;BME280;2501;51.214;6.768;2022-08-19T08:18:02;100906.13;;;22.58;nan
4972;BME280;2501;51.214;6.768;2022-08-19T08:20:31;100916.94;;;22.90;nan
4972;BME280;2501;51.214;6.768;2022-08-19T08:23:00;100912.91;;;23.09;nan
4972;BME280;2501;51.214;6.768;2022-08-19T08:25:41;100919.34;;;23.01;nan
4972;BME280;2501;51.214;6.768;2022-08-19T08:28:09;100920.19;;;23.29;nan
4972;BME280;2501;51.214;6.768;2022-08-19T08:30:38;100919.13;;;23.44;nan
4972;BME280;2501;51.214;6.768;2022-08-19T08:33:10;100928.06;;;23.43;nan
4972;BME280;2501;51.214;6.768;2022-08-19T08:35:39;100926.44;;;23.33;nan
4972;BME280;2501;51.214;6.768;2022-08-19T08:38:11;100935.56;;;23.37;nan
4972;BME280;2501;51.214;6.768;2022-08-19T08:40:44;100933.75;;;23.52;nan
4972;BME280;2501;51.214;6.768;2022-08-19T08:43:22;100941.75;;;23.63;nan
4972;BME280;2501;51.214;6.768;2022-08-19T08:45:56;100933.34;;;23.41;nan
4972;BME280;2501;51.214;6.768;2022-08-19T08:48:36;100935.56;;;23.28;nan
4972;BME280;2501;51.214;6.768;2022-08-19T08:51:09;100928.00;;;23.16;nan
4972;BME280;2501;51.214;6.768;2022-08-19T08:53:39;100932.63;;;23.49;nan
4972;BME280;2501;51.214;6.768;2022-08-19T08:56:10;100931.78;;;23.31;nan
4972;BME280;2501;51.214;6.768;2022-08-19T08:58:46;100926.63;;;23.38;nan
4972;BME280;2501;51.214;6.768;2022-08-19T09:01:16;100920.13;;;23.10;nan
4972;BME280;2501;51.214;6.768;2022-08-19T09:03:48;100921.19;;;22.95;nan
4972;BME280;2501;51.214;6.768;2022-08-19T09:06:23;100925.66;;;23.23;nan
4972;BME280;2501;51.214;6.768;2022-08-19T09:09:00;100938.44;;;23.46;nan
4972;BME280;2501;51.214;6.768;2022-08-19T09:11:40;100936.09;;;23.53;nan
4972;BME280;2501;51.214;6.768;2022-08-19T09:14:22;100937.84;;;23.60;nan
4972;BME280;2501;51.214;6.768;2022-08-19T09:16:52;100940.81;;;23.75;nan
4972;BME280;2501;51.214;6.768;2022-08-19T09:19:23;100947.25;;;23.93;nan
4972;BME280;2501;51.214;6.768;2022-08-19T09:21:51;100943.47;;;23.96;nan
4972;BME280;2501;51.214;6.768;2022-08-19T09:24:20;100933.72;;;23.61;nan
4972;BME280;2501;51.214;6.768;2022-08-19T09:26:48;100943.31;;;23.91;nan
4972;BME280;2501;51.214;6.768;2022-08-19T09:29:17;100947.25;;;23.93;nan
4972;BME280;2501;51.214;6.768;2022-08-19T09:31:46;100948.66;;;24.16;nan
4972;BME280;2501;51.214;6.768;2022-08-19T09:34:14;100945.03;;;23.88;nan
4972;BME280;2501;51.214;6.768;2022-08-19T09:36:48;100948.16;;;23.99;nan
4972;BME280;2501;51.214;6.768;2022-08-19T09:39:20;100943.00;;;23.80;nan
4972;BME280;2501;51.214;6.768;2022-08-19T09:41:49;100949.41;;;24.08;nan
4972;BME280;2501;51.214;6.768;2022-08-19T09:44:18;100948.97;;;23.91;nan
4972;BME280;2501;51.214;6.768;2022-08-19T09:46:46;100939.88;;;23.87;nan
4972;BME280;2501;51.214;6.768;2022-08-19T09:49:17;100941.44;;;23.97;nan
4972;BME280;2501;51.214;6.768;2022-08-19T09:51:52;100950.06;;;24.02;nan
4972;BME280;2501;51.214;6.768;2022-08-19T09:54:22;100939.53;;;24.21;nan
4972;BME280;2501;51.214;6.768;2022-08-19T09:56:51;100943.91;;;24.40;nan
4972;BME280;2501;51.214;6.768;2022-08-19T09:59:19;100937.16;;;24.38;nan
4972;BME280;2501;51.214;6.768;2022-08-19T10:01:48;100943.91;;;24.13;nan
4972;BME280;2501;51.214;6.768;2022-08-19T10:04:17;100939.75;;;24.50;nan
4972;BME280;2501;51.214;6.768;2022-08-19T10:06:48;100942.28;;;24.58;nan
4972;BME280;2501;51.214;6.768;2022-08-19T10:09:20;100942.59;;;24.50;nan
4972;BME280;2501;51.214;6.768;2022-08-19T10:11:48;100949.44;;;24.77;nan
4972;BME280;2501;51.214;6.768;2022-08-19T10:14:17;100940.28;;;24.82;nan
4972;BME280;2501;51.214;6.768;2022-08-19T10:16:47;100941.97;;;24.98;nan
4972;BME280;2501;51.214;6.768;2022-08-19T10:19:16;100944.34;;;24.90;nan
4972;BME280;2501;51.214;6.768;2022-08-19T10:21:45;100937.09;;;24.98;nan
4972;BME280;2501;51.214;6.768;2022-08-19T10:24:14;100941.06;;;24.91;nan
4972;BME280;2501;51.214;6.768;2022-08-19T10:26:45;100938.13;;;24.68;nan
4972;BME280;2501;51.214;6.768;2022-08-19T10:29:13;100928.94;;;24.91;nan
4972;BME280;2501;51.214;6.768;2022-08-19T10:31:42;100916.16;;;24.95;nan
4972;BME280;2501;51.214;6.768;2022-08-19T10:34:12;100922.41;;;25.32;nan
4972;BME280;2501;51.214;6.768;2022-08-19T10:36:41;100915.41;;;25.42;nan
4972;BME280;2501;51.214;6.768;2022-08-19T10:39:11;100920.47;;;25.62;nan
4972;BME280;2501;51.214;6.768;2022-08-19T10:41:39;100924.16;;;25.30;nan
4972;BME280;2501;51.214;6.768;2022-08-19T10:44:12;100921.84;;;25.43;nan
4972;BME280;2501;51.214;6.768;2022-08-19T10:46:43;100920.16;;;25.60;nan
4972;BME280;2501;51.214;6.768;2022-08-19T10:49:13;100919.63;;;25.23;nan
4972;BME280;2501;51.214;6.768;2022-08-19T10:51:42;100920.75;;;24.93;nan
4972;BME280;2501;51.214;6.768;2022-08-19T10:54:23;100922.09;;;24.74;nan
4972;BME280;2501;51.214;6.768;2022-08-19T10:57:12;100932.56;;;24.82;nan
4972;BME280;2501;51.214;6.768;2022-08-19T10:59:41;100928.13;;;24.58;nan
4972;BME280;2501;51.214;6.768;2022-08-19T11:02:10;100930.16;;;24.57;nan
4972;BME280;2501;51.214;6.768;2022-08-19T11:04:40;100917.88;;;24.60;nan
4972;BME280;2501;51.214;6.768;2022-08-19T11:07:08;100926.19;;;24.64;nan
4972;BME280;2501;51.214;6.768;2022-08-19T11:09:39;100919.91;;;24.69;nan
4972;BME280;2501;51.214;6.768;2022-08-19T11:12:09;100921.47;;;24.70;nan
4972;BME280;2501;51.214;6.768;2022-08-19T11:14:38;100914.66;;;24.76;nan
4972;BME280;2501;51.214;6.768;2022-08-19T11:17:09;100921.19;;;25.01;nan
4972;BME280;2501;51.214;6.768;2022-08-19T11:19:39;100918.19;;;25.52;nan
4972;BME280;2501;51.214;6.768;2022-08-19T11:22:08;100912.59;;;25.81;nan
4972;BME280;2501;51.214;6.768;2022-08-19T11:24:37;100911.34;;;26.11;nan
4972;BME280;2501;51.214;6.768;2022-08-19T11:27:07;100910.25;;;25.79;nan
4972;BME280;2501;51.214;6.768;2022-08-19T11:29:38;100913.78;;;26.04;nan
4972;BME280;2501;51.214;6.768;2022-08-19T11:32:10;100908.81;;;25.99;nan
4972;BME280;2501;51.214;6.768;2022-08-19T11:34:39;100896.97;;;26.15;nan
4972;BME280;2501;51.214;6.768;2022-08-19T11:37:07;100910.66;;;26.16;nan
4972;BME280;2501;51.214;6.768;2022-08-19T11:39:36;100903.53;;;26.50;nan
4972;BME280;2501;51.214;6.768;2022-08-19T11:42:06;100899.59;;;26.62;nan
4972;BME280;2501;51.214;6.768;2022-08-19T11:44:47;100889.59;;;26.67;nan
4972;BME280;2501;51.214;6.768;2022-08-19T11:47:18;100885.50;;;26.39;nan
4972;BME280;2501;51.214;6.768;2022-08-19T11:49:47;100889.47;;;27.11;nan
4972;BME280;2501;51.214;6.768;2022-08-19T11:52:21;100888.28;;;26.82;nan
4972;BME280;2501;51.214;6.768;2022-08-19T11:54:50;100888.59;;;26.85;nan
4972;BME280;2501;51.214;6.768;2022-08-19T11:57:19;100896.16;;;26.58;nan
4972;BME280;2501;51.214;6.768;2022-08-19T11:59:49;100893.94;;;26.48;nan
4972;BME280;2501;51.214;6.768;2022-08-19T12:02:20;100887.00;;;26.34;nan
4972;BME280;2501;51.214;6.768;2022-08-19T12:04:49;100892.66;;;26.05;nan
4972;BME280;2501;51.214;6.768;2022-08-19T12:07:18;100895.69;;;26.16;nan
4972;BME280;2501;51.214;6.768;2022-08-19T12:09:46;100889.94;;;26.10;nan
4972;BME280;2501;51.214;6.768;2022-08-19T12:12:16;100896.97;;;26.44;nan
4972;BME280;2501;51.214;6.768;2022-08-19T12:14:44;100896.28;;;26.49;nan
4972;BME280;2501;51.214;6.768;2022-08-19T12:17:13;100892.41;;;26.81;nan
4972;BME280;2501;51.214;6.768;2022-08-19T12:19:44;100879.38;;;26.75;nan
4972;BME280;2501;51.214;6.768;2022-08-19T12:22:12;100878.75;;;27.00;nan
4972;BME280;2501;51.214;6.768;2022-08-19T12:24:41;100880.75;;;27.14;nan
4972;BME280;2501;51.214;6.768;2022-08-19T12:27:09;100874.34;;;27.40;nan
4972;BME280;2501;51.214;6.768;2022-08-19T12:29:38;100873.13;;;27.26;nan
4972;BME280;2501;51.214;6.768;2022-08-19T12:32:06;100871.97;;;26.63;nan
4972;BME280;2501;51.214;6.768;2022-08-19T12:34:35;100871.50;;;26.35;nan
4972;BME280;2501;51.214;6.768;2022-08-19T12:37:06;100874.66;;;26.37;nan
4972;BME280;2501;51.214;6.768;2022-08-19T12:39:38;100870.06;;;26.25;nan
4972;BME280;2501;51.214;6.768;2022-08-19T12:42:07;100871.44;;;26.29;nan
4972;BME280;2501;51.214;6.768;2022-08-19T12:44:37;100874.25;;;26.00;nan
4972;BME280;2501;51.214;6.768;2022-08-19T12:47:06;100867.13;;;26.19;nan
4972;BME280;2501;51.214;6.768;2022-08-19T12:49:35;100864.75;;;26.18;nan
4972;BME280;2501;51.214;6.768;2022-08-19T12:52:08;100861.94;;;26.32;nan
4972;BME280;2501;51.214;6.768;2022-08-19T12:54:40;100869.00;;;26.22;nan
4972;BME280;2501;51.214;6.768;2022-08-19T12:57:09;72832.00;;;-142.00;100.00
4972;BME280;2501;51.214;6.768;2022-08-19T12:59:38;100881.56;;;26.65;nan
4972;BME280;2501;51.214;6.768;2022-08-19T13:02:08;100868.63;;;26.64;nan
4972;BME280;2501;51.214;6.768;2022-08-19T13:04:36;100861.31;;;26.58;nan
4972;BME280;2501;51.214;6.768;2022-08-19T13:07:08;100860.75;;;26.54;nan
4972;BME280;2501;51.214;6.768;2022-08-19T13:09:37;100861.31;;;26.43;nan
4972;BME280;2501;51.214;6.768;2022-08-19T13:12:08;100856.94;;;26.27;nan
4972;BME280;2501;51.214;6.768;2022-08-19T13:14:38;100862.72;;;26.18;nan
4972;BME280;2501;51.214;6.768;2022-08-19T13:17:07;100850.28;;;26.45;nan
4972;BME280;2501;51.214;6.768;2022-08-19T13:19:37;100850.28;;;27.41;nan
4972;BME280;2501;51.214;6.768;2022-08-19T13:22:08;100848.03;;;27.91;nan
4972;BME280;2501;51.214;6.768;2022-08-19T13:24:37;100849.88;;;27.94;nan
4972;BME280;2501;51.214;6.768;2022-08-19T13:27:06;100846.25;;;27.67;nan
4972;BME280;2501;51.214;6.768;2022-08-19T13:29:34;100843.44;;;27.99;nan
4972;BME280;2501;51.214;6.768;2022-08-19T13:32:30;100842.50;;;27.56;nan
4972;BME280;2501;51.214;6.768;2022-08-19T13:35:11;100851.53;;;28.06;nan
4972;BME280;2501;51.214;6.768;2022-08-19T13:37:43;100836.69;;;28.22;nan
4972;BME280;2501;51.214;6.768;2022-08-19T13:40:14;100844.91;;;28.46;nan
4972;BME280;2501;51.214;6.768;2022-08-19T13:42:45;100837.25;;;28.26;nan
4972;BME280;2501;51.214;6.768;2022-08-19T13:45:15;100829.94;;;28.56;nan
4972;BME280;2501;51.214;6.768;2022-08-19T13:47:45;100828.63;;;27.23;nan
4972;BME280;2501;51.214;6.768;2022-08-19T13:50:16;100834.03;;;27.21;nan